sensor_id;sensor_type;location;lat;lon;timestamp;P1;durP1;ratioP1;P2;durP2;ratioP2
35606;SDS011;21729;58.392;15.656;2022-11-15T00:02:17;5.55;;;3.30;;
35606;SDS011;21729;58.392;15.656;2022-11-15T00:04:44;5.90;;;3.78;;
35606;SDS011;21729;58.392;15.656;2022-11-15T00:07:11;6.25;;;4.07;;
35606;SDS011;21729;58.392;15.656;2022-11-15T00:09:39;5.60;;;3.40;;
35606;SDS011;21729;58.392;15.656;2022-11-15T00:12:06;5.00;;;3.67;;
35606;SDS011;21729;58.392;15.656;2022-11-15T00:14:33;4.88;;;3.85;;
35606;SDS011;21729;58.392;15.656;2022-11-15T00:17:00;7.53;;;3.90;;
35606;SDS011;21729;58.392;15.656;2022-11-15T00:19:27;6.00;;;3.70;;
35606;SDS011;21729;58.392;15.656;2022-11-15T00:21:54;7.75;;;4.20;;
35606;SDS011;21729;58.392;15.656;2022-11-15T00:24:21;5.82;;;3.80;;
35606;SDS011;21729;58.392;15.656;2022-11-15T00:26:50;5.90;;;4.00;;
35606;SDS011;21729;58.392;15.656;2022-11-15T00:29:17;7.57;;;4.07;;
35606;SDS011;21729;58.392;15.656;2022-11-15T00:31:44;7.32;;;4.00;;
35606;SDS011;21729;58.392;15.656;2022-11-15T00:34:11;7.50;;;4.30;;
35606;SDS011;21729;58.392;15.656;2022-11-15T00:36:38;5.30;;;4.13;;
35606;SDS011;21729;58.392;15.656;2022-11-15T00:39:05;8.10;;;4.50;;
35606;SDS011;21729;58.392;15.656;2022-11-15T00:41:32;7.70;;;5.00;;
35606;SDS011;21729;58.392;15.656;2022-11-15T00:44:01;5.28;;;4.03;;
35606;SDS011;21729;58.392;15.656;2022-11-15T00:46:28;8.40;;;4.70;;
35606;SDS011;21729;58.392;15.656;2022-11-15T00:48:55;8.55;;;4.88;;
35606;SDS011;21729;58.392;15.656;2022-11-15T00:51:22;6.93;;;4.63;;
35606;SDS011;21729;58.392;15.656;2022-11-15T00:53:49;7.68;;;4.50;;
35606;SDS011;21729;58.392;15.656;2022-11-15T00:56:16;8.63;;;4.70;;
35606;SDS011;21729;58.392;15.656;2022-11-15T00:58:43;9.15;;;4.75;;
35606;SDS011;21729;58.392;15.656;2022-11-15T01:01:13;7.93;;;4.63;;
35606;SDS011;21729;58.392;15.656;2022-11-15T01:03:41;8.77;;;4.68;;
35606;SDS011;21729;58.392;15.656;2022-11-15T01:06:08;9.32;;;5.18;;
35606;SDS011;21729;58.392;15.656;2022-11-15T01:08:35;7.15;;;4.88;;
35606;SDS011;21729;58.392;15.656;2022-11-15T01:11:02;6.78;;;4.35;;
35606;SDS011;21729;58.392;15.656;2022-11-15T01:13:31;6.00;;;4.30;;
35606;SDS011;21729;58.392;15.656;2022-11-15T01:15:58;8.75;;;4.80;;
35606;SDS011;21729;58.392;15.656;2022-11-15T01:18:27;8.90;;;4.88;;
35606;SDS011;21729;58.392;15.656;2022-11-15T01:20:54;7.93;;;4.35;;
35606;SDS011;21729;58.392;15.656;2022-11-15T01:23:21;6.93;;;4.40;;
35606;SDS011;21729;58.392;15.656;2022-11-15T01:25:48;11.18;;;5.07;;
35606;SDS011;21729;58.392;15.656;2022-11-15T01:28:16;8.60;;;4.65;;
35606;SDS011;21729;58.392;15.656;2022-11-15T01:30:43;7.20;;;4.20;;
35606;SDS011;21729;58.392;15.656;2022-11-15T01:33:10;5.53;;;4.20;;
35606;SDS011;21729;58.392;15.656;2022-11-15T01:35:39;6.38;;;4.43;;
35606;SDS011;21729;58.392;15.656;2022-11-15T01:38:06;5.75;;;4.20;;
35606;SDS011;21729;58.392;15.656;2022-11-15T01:40:34;6.93;;;4.68;;
35606;SDS011;21729;58.392;15.656;2022-11-15T01:45:46;6.22;;;3.95;;
35606;SDS011;21729;58.392;15.656;2022-11-15T01:48:19;5.53;;;3.90;;
35606;SDS011;21729;58.392;15.656;2022-11-15T01:50:48;6.60;;;4.07;;
35606;SDS011;21729;58.392;15.656;2022-11-15T01:53:17;6.18;;;4.00;;
35606;SDS011;21729;58.392;15.656;2022-11-15T01:55:46;4.93;;;3.75;;
35606;SDS011;21729;58.392;15.656;2022-11-15T01:58:14;5.95;;;3.90;;
35606;SDS011;21729;58.392;15.656;2022-11-15T02:00:41;6.28;;;3.90;;
35606;SDS011;21729;58.392;15.656;2022-11-15T02:03:08;5.43;;;3.95;;
35606;SDS011;21729;58.392;15.656;2022-11-15T02:05:35;5.63;;;3.97;;
35606;SDS011;21729;58.392;15.656;2022-11-15T02:08:05;5.60;;;3.90;;
35606;SDS011;21729;58.392;15.656;2022-11-15T02:10:33;5.30;;;3.90;;
35606;SDS011;21729;58.392;15.656;2022-11-15T02:13:00;6.25;;;3.47;;
35606;SDS011;21729;58.392;15.656;2022-11-15T02:15:29;5.30;;;3.40;;
35606;SDS011;21729;58.392;15.656;2022-11-15T02:18:09;5.75;;;3.22;;
35606;SDS011;21729;58.392;15.656;2022-11-15T02:20:49;5.50;;;3.63;;
35606;SDS011;21729;58.392;15.656;2022-11-15T02:23:44;4.88;;;3.75;;
35606;SDS011;21729;58.392;15.656;2022-11-15T02:26:37;4.70;;;3.70;;
35606;SDS011;21729;58.392;15.656;2022-11-15T02:29:30;5.50;;;3.73;;
35606;SDS011;21729;58.392;15.656;2022-11-15T02:32:15;7.60;;;3.70;;
35606;SDS011;21729;58.392;15.656;2022-11-15T02:34:49;5.00;;;3.13;;
35606;SDS011;21729;58.392;15.656;2022-11-15T02:37:21;5.10;;;3.75;;
35606;SDS011;21729;58.392;15.656;2022-11-15T02:39:55;5.93;;;4.20;;
35606;SDS011;21729;58.392;15.656;2022-11-15T02:42:32;5.90;;;4.80;;
35606;SDS011;21729;58.392;15.656;2022-11-15T02:45:21;6.45;;;4.65;;
35606;SDS011;21729;58.392;15.656;2022-11-15T02:47:56;6.18;;;4.90;;
35606;SDS011;21729;58.392;15.656;2022-11-15T02:50:27;7.35;;;5.35;;
35606;SDS011;21729;58.392;15.656;2022-11-15T02:52:56;8.43;;;5.20;;
35606;SDS011;21729;58.392;15.656;2022-11-15T02:55:26;8.60;;;5.50;;
35606;SDS011;21729;58.392;15.656;2022-11-15T02:57:59;9.25;;;5.60;;
35606;SDS011;21729;58.392;15.656;2022-11-15T03:00:34;9.63;;;6.15;;
35606;SDS011;21729;58.392;15.656;2022-11-15T03:03:11;10.02;;;6.43;;
35606;SDS011;21729;58.392;15.656;2022-11-15T03:05:59;9.52;;;6.53;;
35606;SDS011;21729;58.392;15.656;2022-11-15T03:08:34;9.55;;;6.82;;
35606;SDS011;21729;58.392;15.656;2022-11-15T03:11:07;10.67;;;6.50;;
35606;SDS011;21729;58.392;15.656;2022-11-15T03:13:37;10.65;;;6.80;;
35606;SDS011;21729;58.392;15.656;2022-11-15T03:16:09;11.02;;;6.63;;
35606;SDS011;21729;58.392;15.656;2022-11-15T03:18:43;10.73;;;7.30;;
35606;SDS011;21729;58.392;15.656;2022-11-15T03:21:13;11.15;;;7.03;;
35606;SDS011;21729;58.392;15.656;2022-11-15T03:23:41;11.30;;;7.18;;
35606;SDS011;21729;58.392;15.656;2022-11-15T03:26:11;12.95;;;7.53;;
35606;SDS011;21729;58.392;15.656;2022-11-15T03:28:41;11.75;;;7.50;;
35606;SDS011;21729;58.392;15.656;2022-11-15T03:31:12;11.48;;;7.35;;
35606;SDS011;21729;58.392;15.656;2022-11-15T03:34:00;11.40;;;7.05;;
35606;SDS011;21729;58.392;15.656;2022-11-15T03:36:30;10.93;;;6.93;;
35606;SDS011;21729;58.392;15.656;2022-11-15T03:39:00;9.90;;;7.03;;
35606;SDS011;21729;58.392;15.656;2022-11-15T03:41:34;10.20;;;6.72;;
35606;SDS011;21729;58.392;15.656;2022-11-15T03:44:09;10.80;;;7.00;;
35606;SDS011;21729;58.392;15.656;2022-11-15T03:46:46;10.67;;;6.77;;
35606;SDS011;21729;58.392;15.656;2022-11-15T03:49:19;9.52;;;6.43;;
35606;SDS011;21729;58.392;15.656;2022-11-15T03:51:52;9.75;;;6.38;;
35606;SDS011;21729;58.392;15.656;2022-11-15T03:54:22;9.52;;;6.30;;
35606;SDS011;21729;58.392;15.656;2022-11-15T03:56:49;9.85;;;6.57;;
35606;SDS011;21729;58.392;15.656;2022-11-15T03:59:16;10.68;;;6.28;;
35606;SDS011;21729;58.392;15.656;2022-11-15T04:01:43;8.30;;;5.90;;
35606;SDS011;21729;58.392;15.656;2022-11-15T04:04:10;10.45;;;6.28;;
35606;SDS011;21729;58.392;15.656;2022-11-15T04:06:39;8.95;;;5.90;;
35606;SDS011;21729;58.392;15.656;2022-11-15T04:09:06;9.13;;;5.63;;
35606;SDS011;21729;58.392;15.656;2022-11-15T04:11:33;8.70;;;5.18;;
35606;SDS011;21729;58.392;15.656;2022-11-15T04:14:00;10.05;;;5.75;;
35606;SDS011;21729;58.392;15.656;2022-11-15T04:16:27;9.85;;;5.40;;
35606;SDS011;21729;58.392;15.656;2022-11-15T04:18:54;7.85;;;5.07;;
35606;SDS011;21729;58.392;15.656;2022-11-15T04:21:35;9.20;;;5.47;;
35606;SDS011;21729;58.392;15.656;2022-11-15T04:24:21;9.53;;;5.20;;
35606;SDS011;21729;58.392;15.656;2022-11-15T04:26:48;8.63;;;4.88;;
35606;SDS011;21729;58.392;15.656;2022-11-15T04:29:15;7.20;;;4.65;;
35606;SDS011;21729;58.392;15.656;2022-11-15T04:32:00;7.93;;;4.40;;
35606;SDS011;21729;58.392;15.656;2022-11-15T04:34:27;8.00;;;4.70;;
35606;SDS011;21729;58.392;15.656;2022-11-15T04:36:54;6.97;;;4.53;;
35606;SDS011;21729;58.392;15.656;2022-11-15T04:39:40;7.28;;;4.95;;
35606;SDS011;21729;58.392;15.656;2022-11-15T04:42:09;7.43;;;4.70;;
35606;SDS011;21729;58.392;15.656;2022-11-15T04:44:36;6.82;;;4.40;;
35606;SDS011;21729;58.392;15.656;2022-11-15T04:47:03;7.60;;;4.97;;
35606;SDS011;21729;58.392;15.656;2022-11-15T04:49:31;6.57;;;4.57;;
35606;SDS011;21729;58.392;15.656;2022-11-15T04:51:58;7.95;;;5.10;;
35606;SDS011;21729;58.392;15.656;2022-11-15T04:54:25;7.45;;;4.70;;
35606;SDS011;21729;58.392;15.656;2022-11-15T04:56:53;5.75;;;4.38;;
35606;SDS011;21729;58.392;15.656;2022-11-15T04:59:20;6.60;;;4.43;;
35606;SDS011;21729;58.392;15.656;2022-11-15T05:01:47;6.57;;;4.28;;
35606;SDS011;21729;58.392;15.656;2022-11-15T05:04:14;7.68;;;4.65;;
35606;SDS011;21729;58.392;15.656;2022-11-15T05:06:47;6.93;;;4.50;;
35606;SDS011;21729;58.392;15.656;2022-11-15T05:09:15;9.23;;;4.60;;
35606;SDS011;21729;58.392;15.656;2022-11-15T05:11:43;8.32;;;4.97;;
35606;SDS011;21729;58.392;15.656;2022-11-15T05:14:12;7.20;;;4.40;;
35606;SDS011;21729;58.392;15.656;2022-11-15T05:16:39;6.95;;;4.25;;
35606;SDS011;21729;58.392;15.656;2022-11-15T05:19:06;7.30;;;4.63;;
35606;SDS011;21729;58.392;15.656;2022-11-15T05:21:33;6.03;;;4.57;;
35606;SDS011;21729;58.392;15.656;2022-11-15T05:24:01;8.13;;;4.63;;
35606;SDS011;21729;58.392;15.656;2022-11-15T05:26:28;6.68;;;4.40;;
35606;SDS011;21729;58.392;15.656;2022-11-15T05:28:56;7.45;;;3.97;;
35606;SDS011;21729;58.392;15.656;2022-11-15T05:31:26;7.32;;;4.70;;
35606;SDS011;21729;58.392;15.656;2022-11-15T05:33:54;5.40;;;3.60;;
35606;SDS011;21729;58.392;15.656;2022-11-15T05:36:25;6.43;;;3.83;;
35606;SDS011;21729;58.392;15.656;2022-11-15T05:38:57;8.02;;;4.15;;
35606;SDS011;21729;58.392;15.656;2022-11-15T05:41:25;5.22;;;3.70;;
35606;SDS011;21729;58.392;15.656;2022-11-15T05:43:57;5.10;;;3.28;;
35606;SDS011;21729;58.392;15.656;2022-11-15T05:46:27;4.10;;;3.08;;
35606;SDS011;21729;58.392;15.656;2022-11-15T05:48:55;5.63;;;2.97;;
35606;SDS011;21729;58.392;15.656;2022-11-15T05:51:23;4.43;;;3.15;;
35606;SDS011;21729;58.392;15.656;2022-11-15T05:53:52;4.47;;;3.17;;
35606;SDS011;21729;58.392;15.656;2022-11-15T05:56:21;4.90;;;2.95;;
35606;SDS011;21729;58.392;15.656;2022-11-15T05:58:48;4.05;;;2.50;;
35606;SDS011;21729;58.392;15.656;2022-11-15T06:01:15;3.83;;;2.67;;
35606;SDS011;21729;58.392;15.656;2022-11-15T06:03:43;3.90;;;2.63;;
35606;SDS011;21729;58.392;15.656;2022-11-15T06:06:11;3.42;;;2.30;;
35606;SDS011;21729;58.392;15.656;2022-11-15T06:08:38;5.78;;;2.88;;
35606;SDS011;21729;58.392;15.656;2022-11-15T06:11:05;5.40;;;2.60;;
35606;SDS011;21729;58.392;15.656;2022-11-15T06:13:33;4.28;;;2.70;;
35606;SDS011;21729;58.392;15.656;2022-11-15T06:16:00;4.38;;;2.67;;
35606;SDS011;21729;58.392;15.656;2022-11-15T06:18:27;2.70;;;2.05;;
35606;SDS011;21729;58.392;15.656;2022-11-15T06:20:59;4.85;;;2.10;;
35606;SDS011;21729;58.392;15.656;2022-11-15T06:23:27;3.15;;;1.92;;
35606;SDS011;21729;58.392;15.656;2022-11-15T06:25:57;2.67;;;1.77;;
35606;SDS011;21729;58.392;15.656;2022-11-15T06:28:24;4.72;;;2.00;;
35606;SDS011;21729;58.392;15.656;2022-11-15T06:30:53;1.95;;;1.70;;
35606;SDS011;21729;58.392;15.656;2022-11-15T06:33:20;2.45;;;1.75;;
35606;SDS011;21729;58.392;15.656;2022-11-15T06:35:48;1.70;;;1.20;;
35606;SDS011;21729;58.392;15.656;2022-11-15T06:38:16;1.63;;;1.50;;
35606;SDS011;21729;58.392;15.656;2022-11-15T06:40:43;1.40;;;1.25;;
35606;SDS011;21729;58.392;15.656;2022-11-15T06:43:10;1.20;;;1.10;;
35606;SDS011;21729;58.392;15.656;2022-11-15T06:45:37;1.38;;;1.27;;
35606;SDS011;21729;58.392;15.656;2022-11-15T06:48:07;1.40;;;1.30;;
35606;SDS011;21729;58.392;15.656;2022-11-15T06:50:34;1.33;;;1.23;;
35606;SDS011;21729;58.392;15.656;2022-11-15T06:53:01;3.10;;;1.48;;
35606;SDS011;21729;58.392;15.656;2022-11-15T06:55:30;2.67;;;1.40;;
35606;SDS011;21729;58.392;15.656;2022-11-15T06:57:57;2.50;;;1.60;;
35606;SDS011;21729;58.392;15.656;2022-11-15T07:00:24;1.60;;;0.93;;
35606;SDS011;21729;58.392;15.656;2022-11-15T07:02:51;1.10;;;1.00;;
35606;SDS011;21729;58.392;15.656;2022-11-15T07:05:18;1.63;;;0.90;;
35606;SDS011;21729;58.392;15.656;2022-11-15T07:07:50;2.47;;;0.93;;
35606;SDS011;21729;58.392;15.656;2022-11-15T07:10:18;1.70;;;0.90;;
35606;SDS011;21729;58.392;15.656;2022-11-15T07:12:48;0.70;;;0.70;;
35606;SDS011;21729;58.392;15.656;2022-11-15T07:15:15;2.05;;;0.82;;
35606;SDS011;21729;58.392;15.656;2022-11-15T07:17:42;1.40;;;0.80;;
35606;SDS011;21729;58.392;15.656;2022-11-15T07:20:09;1.90;;;0.77;;
35606;SDS011;21729;58.392;15.656;2022-11-15T07:22:38;0.88;;;0.68;;
35606;SDS011;21729;58.392;15.656;2022-11-15T07:25:05;0.60;;;0.60;;
35606;SDS011;21729;58.392;15.656;2022-11-15T07:27:33;1.20;;;0.70;;
35606;SDS011;21729;58.392;15.656;2022-11-15T07:30:02;1.20;;;0.75;;
35606;SDS011;21729;58.392;15.656;2022-11-15T07:32:30;1.23;;;0.70;;
35606;SDS011;21729;58.392;15.656;2022-11-15T07:34:57;1.38;;;0.57;;
35606;SDS011;21729;58.392;15.656;2022-11-15T07:37:24;0.70;;;0.70;;
35606;SDS011;21729;58.392;15.656;2022-11-15T07:39:51;0.55;;;0.50;;
35606;SDS011;21729;58.392;15.656;2022-11-15T07:42:18;0.50;;;0.47;;
35606;SDS011;21729;58.392;15.656;2022-11-15T07:45:05;0.50;;;0.40;;
35606;SDS011;21729;58.392;15.656;2022-11-15T07:47:32;0.73;;;0.50;;
35606;SDS011;21729;58.392;15.656;2022-11-15T07:49:59;0.50;;;0.50;;
35606;SDS011;21729;58.392;15.656;2022-11-15T07:52:26;1.20;;;0.50;;
35606;SDS011;21729;58.392;15.656;2022-11-15T07:54:53;1.90;;;0.82;;
35606;SDS011;21729;58.392;15.656;2022-11-15T07:57:20;0.55;;;0.50;;
35606;SDS011;21729;58.392;15.656;2022-11-15T07:59:47;2.50;;;0.50;;
35606;SDS011;21729;58.392;15.656;2022-11-15T08:02:16;0.60;;;0.40;;
35606;SDS011;21729;58.392;15.656;2022-11-15T08:04:43;1.70;;;0.40;;
35606;SDS011;21729;58.392;15.656;2022-11-15T08:07:10;0.65;;;0.45;;
35606;SDS011;21729;58.392;15.656;2022-11-15T08:09:37;1.20;;;0.40;;
35606;SDS011;21729;58.392;15.656;2022-11-15T08:12:04;2.20;;;0.60;;
35606;SDS011;21729;58.392;15.656;2022-11-15T08:14:31;0.80;;;0.70;;
35606;SDS011;21729;58.392;15.656;2022-11-15T08:16:58;1.70;;;0.32;;
35606;SDS011;21729;58.392;15.656;2022-11-15T08:19:27;0.73;;;0.40;;
35606;SDS011;21729;58.392;15.656;2022-11-15T08:21:54;1.30;;;0.30;;
35606;SDS011;21729;58.392;15.656;2022-11-15T08:24:21;0.75;;;0.30;;
35606;SDS011;21729;58.392;15.656;2022-11-15T08:26:48;0.80;;;0.30;;
35606;SDS011;21729;58.392;15.656;2022-11-15T08:29:15;0.80;;;0.37;;
35606;SDS011;21729;58.392;15.656;2022-11-15T08:31:42;0.38;;;0.38;;
35606;SDS011;21729;58.392;15.656;2022-11-15T08:34:09;0.32;;;0.32;;
35606;SDS011;21729;58.392;15.656;2022-11-15T08:36:38;1.20;;;0.47;;
35606;SDS011;21729;58.392;15.656;2022-11-15T08:39:05;0.67;;;0.50;;
35606;SDS011;21729;58.392;15.656;2022-11-15T08:41:33;0.60;;;0.50;;
35606;SDS011;21729;58.392;15.656;2022-11-15T08:44:02;0.52;;;0.52;;
35606;SDS011;21729;58.392;15.656;2022-11-15T08:46:29;0.60;;;0.60;;
35606;SDS011;21729;58.392;15.656;2022-11-15T08:48:56;0.68;;;0.63;;
35606;SDS011;21729;58.392;15.656;2022-11-15T08:51:24;0.70;;;0.70;;
35606;SDS011;21729;58.392;15.656;2022-11-15T08:53:52;1.90;;;0.88;;
35606;SDS011;21729;58.392;15.656;2022-11-15T08:56:19;0.65;;;0.65;;
35606;SDS011;21729;58.392;15.656;2022-11-15T08:58:46;0.60;;;0.60;;
35606;SDS011;21729;58.392;15.656;2022-11-15T09:01:14;0.73;;;0.73;;
35606;SDS011;21729;58.392;15.656;2022-11-15T09:03:42;0.80;;;0.77;;
35606;SDS011;21729;58.392;15.656;2022-11-15T09:06:09;0.70;;;0.70;;
35606;SDS011;21729;58.392;15.656;2022-11-15T09:08:37;1.27;;;1.02;;
35606;SDS011;21729;58.392;15.656;2022-11-15T09:11:05;0.90;;;0.90;;
35606;SDS011;21729;58.392;15.656;2022-11-15T09:13:33;1.23;;;0.80;;
35606;SDS011;21729;58.392;15.656;2022-11-15T09:16:02;0.60;;;0.60;;
35606;SDS011;21729;58.392;15.656;2022-11-15T09:18:30;0.70;;;0.70;;
35606;SDS011;21729;58.392;15.656;2022-11-15T09:20:57;0.82;;;0.60;;
35606;SDS011;21729;58.392;15.656;2022-11-15T09:23:25;0.65;;;0.65;;
35606;SDS011;21729;58.392;15.656;2022-11-15T09:25:57;0.82;;;0.70;;
35606;SDS011;21729;58.392;15.656;2022-11-15T09:28:26;1.00;;;0.80;;
35606;SDS011;21729;58.392;15.656;2022-11-15T09:30:55;0.70;;;0.70;;
35606;SDS011;21729;58.392;15.656;2022-11-15T09:33:23;1.20;;;0.60;;
35606;SDS011;21729;58.392;15.656;2022-11-15T09:35:51;1.85;;;0.60;;
35606;SDS011;21729;58.392;15.656;2022-11-15T09:38:19;0.63;;;0.63;;
35606;SDS011;21729;58.392;15.656;2022-11-15T09:40:47;0.80;;;0.60;;
35606;SDS011;21729;58.392;15.656;2022-11-15T09:43:27;0.60;;;0.60;;
35606;SDS011;21729;58.392;15.656;2022-11-15T09:46:02;0.47;;;0.47;;
35606;SDS011;21729;58.392;15.656;2022-11-15T09:48:42;0.60;;;0.60;;
35606;SDS011;21729;58.392;15.656;2022-11-15T09:51:20;1.20;;;0.70;;
35606;SDS011;21729;58.392;15.656;2022-11-15T09:53:56;1.00;;;0.63;;
35606;SDS011;21729;58.392;15.656;2022-11-15T09:56:28;0.83;;;0.70;;
35606;SDS011;21729;58.392;15.656;2022-11-15T09:58:59;0.80;;;0.60;;
35606;SDS011;21729;58.392;15.656;2022-11-15T10:01:44;0.73;;;0.60;;
35606;SDS011;21729;58.392;15.656;2022-11-15T10:04:15;0.50;;;0.50;;
35606;SDS011;21729;58.392;15.656;2022-11-15T10:06:44;1.00;;;0.60;;
35606;SDS011;21729;58.392;15.656;2022-11-15T10:09:17;1.00;;;0.60;;
35606;SDS011;21729;58.392;15.656;2022-11-15T10:11:49;1.30;;;0.73;;
35606;SDS011;21729;58.392;15.656;2022-11-15T10:14:19;2.30;;;0.60;;
35606;SDS011;21729;58.392;15.656;2022-11-15T10:19:51;1.10;;;0.60;;
35606;SDS011;21729;58.392;15.656;2022-11-15T10:22:27;0.85;;;0.52;;
35606;SDS011;21729;58.392;15.656;2022-11-15T10:25:00;1.08;;;0.60;;
35606;SDS011;21729;58.392;15.656;2022-11-15T10:27:38;0.70;;;0.60;;
35606;SDS011;21729;58.392;15.656;2022-11-15T10:30:12;2.00;;;0.80;;
35606;SDS011;21729;58.392;15.656;2022-11-15T10:32:41;1.40;;;0.70;;
35606;SDS011;21729;58.392;15.656;2022-11-15T10:35:17;2.05;;;0.60;;
35606;SDS011;21729;58.392;15.656;2022-11-15T10:37:46;1.80;;;0.60;;
35606;SDS011;21729;58.392;15.656;2022-11-15T10:40:16;1.10;;;0.70;;
35606;SDS011;21729;58.392;15.656;2022-11-15T10:42:44;0.50;;;0.50;;
35606;SDS011;21729;58.392;15.656;2022-11-15T10:45:27;2.08;;;0.80;;
35606;SDS011;21729;58.392;15.656;2022-11-15T10:47:59;1.30;;;0.60;;
35606;SDS011;21729;58.392;15.656;2022-11-15T10:50:49;1.25;;;0.60;;
35606;SDS011;21729;58.392;15.656;2022-11-15T10:53:20;0.73;;;0.50;;
35606;SDS011;21729;58.392;15.656;2022-11-15T10:55:58;0.80;;;0.40;;
35606;SDS011;21729;58.392;15.656;2022-11-15T10:58:35;0.70;;;0.30;;
35606;SDS011;21729;58.392;15.656;2022-11-15T11:01:16;1.70;;;0.77;;
35606;SDS011;21729;58.392;15.656;2022-11-15T11:03:45;2.05;;;0.60;;
35606;SDS011;21729;58.392;15.656;2022-11-15T11:06:25;1.20;;;0.57;;
35606;SDS011;21729;58.392;15.656;2022-11-15T11:08:54;3.20;;;0.70;;
35606;SDS011;21729;58.392;15.656;2022-11-15T11:11:22;1.60;;;0.60;;
35606;SDS011;21729;58.392;15.656;2022-11-15T11:13:50;1.10;;;0.73;;
35606;SDS011;21729;58.392;15.656;2022-11-15T11:16:21;1.63;;;0.52;;
35606;SDS011;21729;58.392;15.656;2022-11-15T11:19:14;1.20;;;0.40;;
35606;SDS011;21729;58.392;15.656;2022-11-15T11:21:57;1.38;;;0.40;;
35606;SDS011;21729;58.392;15.656;2022-11-15T11:24:31;1.50;;;0.50;;
35606;SDS011;21729;58.392;15.656;2022-11-15T11:27:13;0.77;;;0.35;;
35606;SDS011;21729;58.392;15.656;2022-11-15T11:29:51;0.80;;;0.30;;
35606;SDS011;21729;58.392;15.656;2022-11-15T11:32:34;0.93;;;0.45;;
35606;SDS011;21729;58.392;15.656;2022-11-15T11:35:25;0.60;;;0.30;;
35606;SDS011;21729;58.392;15.656;2022-11-15T11:37:59;1.60;;;0.40;;
35606;SDS011;21729;58.392;15.656;2022-11-15T11:40:37;1.70;;;0.50;;
35606;SDS011;21729;58.392;15.656;2022-11-15T11:43:11;1.38;;;0.50;;
35606;SDS011;21729;58.392;15.656;2022-11-15T11:45:53;1.30;;;0.40;;
35606;SDS011;21729;58.392;15.656;2022-11-15T11:48:44;1.70;;;0.43;;
35606;SDS011;21729;58.392;15.656;2022-11-15T11:51:18;0.90;;;0.40;;
35606;SDS011;21729;58.392;15.656;2022-11-15T11:53:50;1.60;;;0.55;;
35606;SDS011;21729;58.392;15.656;2022-11-15T11:56:23;1.95;;;0.60;;
35606;SDS011;21729;58.392;15.656;2022-11-15T11:58:54;1.40;;;0.50;;
35606;SDS011;21729;58.392;15.656;2022-11-15T12:01:26;1.40;;;0.35;;
35606;SDS011;21729;58.392;15.656;2022-11-15T12:04:01;1.30;;;0.50;;
35606;SDS011;21729;58.392;15.656;2022-11-15T12:06:33;0.50;;;0.30;;
35606;SDS011;21729;58.392;15.656;2022-11-15T12:09:04;1.45;;;0.50;;
35606;SDS011;21729;58.392;15.656;2022-11-15T12:11:43;1.13;;;0.40;;
35606;SDS011;21729;58.392;15.656;2022-11-15T12:14:20;0.68;;;0.30;;
35606;SDS011;21729;58.392;15.656;2022-11-15T12:16:56;1.40;;;0.47;;
35606;SDS011;21729;58.392;15.656;2022-11-15T12:19:25;0.80;;;0.30;;
35606;SDS011;21729;58.392;15.656;2022-11-15T12:21:54;1.23;;;0.57;;
35606;SDS011;21729;58.392;15.656;2022-11-15T12:24:27;2.17;;;0.40;;
35606;SDS011;21729;58.392;15.656;2022-11-15T12:27:00;2.13;;;0.30;;
35606;SDS011;21729;58.392;15.656;2022-11-15T12:29:31;1.30;;;0.40;;
35606;SDS011;21729;58.392;15.656;2022-11-15T12:32:03;0.55;;;0.25;;
35606;SDS011;21729;58.392;15.656;2022-11-15T12:34:38;1.30;;;0.43;;
35606;SDS011;21729;58.392;15.656;2022-11-15T12:46:10;2.70;;;0.60;;
35606;SDS011;21729;58.392;15.656;2022-11-15T12:48:46;1.60;;;0.43;;
35606;SDS011;21729;58.392;15.656;2022-11-15T12:51:21;0.53;;;0.40;;
35606;SDS011;21729;58.392;15.656;2022-11-15T12:57:26;0.60;;;0.30;;
35606;SDS011;21729;58.392;15.656;2022-11-15T12:59:59;0.65;;;0.50;;
35606;SDS011;21729;58.392;15.656;2022-11-15T13:02:29;1.70;;;0.60;;
35606;SDS011;21729;58.392;15.656;2022-11-15T13:08:07;0.80;;;0.40;;
35606;SDS011;21729;58.392;15.656;2022-11-15T13:10:34;0.43;;;0.30;;
35606;SDS011;21729;58.392;15.656;2022-11-15T13:13:02;1.52;;;0.40;;
35606;SDS011;21729;58.392;15.656;2022-11-15T13:15:37;1.10;;;0.60;;
35606;SDS011;21729;58.392;15.656;2022-11-15T13:18:31;1.55;;;0.40;;
35606;SDS011;21729;58.392;15.656;2022-11-15T13:21:05;1.60;;;0.50;;
35606;SDS011;21729;58.392;15.656;2022-11-15T13:24:03;3.13;;;0.77;;
35606;SDS011;21729;58.392;15.656;2022-11-15T13:26:37;0.85;;;0.40;;
35606;SDS011;21729;58.392;15.656;2022-11-15T13:29:12;3.90;;;0.50;;
35606;SDS011;21729;58.392;15.656;2022-11-15T13:31:42;3.40;;;0.63;;
35606;SDS011;21729;58.392;15.656;2022-11-15T13:34:16;1.40;;;0.50;;
35606;SDS011;21729;58.392;15.656;2022-11-15T13:36:48;4.53;;;0.60;;
35606;SDS011;21729;58.392;15.656;2022-11-15T13:39:25;7.47;;;0.73;;
35606;SDS011;21729;58.392;15.656;2022-11-15T13:41:54;1.52;;;0.60;;
35606;SDS011;21729;58.392;15.656;2022-11-15T13:44:21;1.00;;;0.47;;
35606;SDS011;21729;58.392;15.656;2022-11-15T13:46:59;0.80;;;0.50;;
35606;SDS011;21729;58.392;15.656;2022-11-15T13:49:29;3.85;;;0.90;;
35606;SDS011;21729;58.392;15.656;2022-11-15T13:51:57;0.55;;;0.50;;
35606;SDS011;21729;58.392;15.656;2022-11-15T13:54:30;1.42;;;0.40;;
35606;SDS011;21729;58.392;15.656;2022-11-15T13:57:01;1.10;;;0.45;;
35606;SDS011;21729;58.392;15.656;2022-11-15T13:59:36;1.40;;;0.40;;
35606;SDS011;21729;58.392;15.656;2022-11-15T14:02:11;0.83;;;0.40;;
35606;SDS011;21729;58.392;15.656;2022-11-15T14:04:45;1.10;;;0.50;;
35606;SDS011;21729;58.392;15.656;2022-11-15T14:07:15;1.58;;;0.60;;
35606;SDS011;21729;58.392;15.656;2022-11-15T14:09:46;1.10;;;0.57;;
35606;SDS011;21729;58.392;15.656;2022-11-15T14:12:24;1.08;;;0.50;;
35606;SDS011;21729;58.392;15.656;2022-11-15T14:14:54;1.65;;;0.40;;
35606;SDS011;21729;58.392;15.656;2022-11-15T14:17:32;0.40;;;0.40;;
35606;SDS011;21729;58.392;15.656;2022-11-15T14:20:00;0.85;;;0.50;;
35606;SDS011;21729;58.392;15.656;2022-11-15T14:22:29;0.90;;;0.40;;
35606;SDS011;21729;58.392;15.656;2022-11-15T14:25:05;1.52;;;0.50;;
35606;SDS011;21729;58.392;15.656;2022-11-15T14:27:40;2.97;;;0.65;;
35606;SDS011;21729;58.392;15.656;2022-11-15T14:30:12;0.95;;;0.65;;
35606;SDS011;21729;58.392;15.656;2022-11-15T14:32:44;0.70;;;0.50;;
35606;SDS011;21729;58.392;15.656;2022-11-15T14:35:15;1.00;;;0.60;;
35606;SDS011;21729;58.392;15.656;2022-11-15T14:37:44;1.27;;;0.70;;
35606;SDS011;21729;58.392;15.656;2022-11-15T14:40:14;2.05;;;0.70;;
35606;SDS011;21729;58.392;15.656;2022-11-15T14:42:43;1.40;;;0.60;;
35606;SDS011;21729;58.392;15.656;2022-11-15T14:45:12;1.20;;;0.60;;
35606;SDS011;21729;58.392;15.656;2022-11-15T14:47:40;1.85;;;0.50;;
35606;SDS011;21729;58.392;15.656;2022-11-15T14:50:10;1.10;;;0.60;;
35606;SDS011;21729;58.392;15.656;2022-11-15T14:52:39;1.58;;;0.70;;
35606;SDS011;21729;58.392;15.656;2022-11-15T14:55:11;1.70;;;0.50;;
35606;SDS011;21729;58.392;15.656;2022-11-15T14:57:44;1.40;;;0.40;;
35606;SDS011;21729;58.392;15.656;2022-11-15T15:00:12;1.60;;;0.40;;
35606;SDS011;21729;58.392;15.656;2022-11-15T15:02:40;1.73;;;0.40;;
35606;SDS011;21729;58.392;15.656;2022-11-15T15:05:15;1.35;;;0.30;;
35606;SDS011;21729;58.392;15.656;2022-11-15T15:07:43;1.08;;;0.43;;
35606;SDS011;21729;58.392;15.656;2022-11-15T15:10:11;1.30;;;0.40;;
35606;SDS011;21729;58.392;15.656;2022-11-15T15:12:41;1.73;;;0.50;;
35606;SDS011;21729;58.392;15.656;2022-11-15T15:15:11;1.20;;;0.40;;
35606;SDS011;21729;58.392;15.656;2022-11-15T15:17:40;0.70;;;0.43;;